Hauptseite
METAR-TAF:

METAR-TAF

Flughäfen :

RAF Fairford

Fairford, England

Breite: 51-41N, Länge: 001-47W, Höhe: 87 m

Beobachtung

Neuester Wetterbericht von vor 13 Minuten, um 10:01 UTC
Wind 12 kt aus Südwest
Temperatur 18°C
Luftfeuchtigkeit 77%
Luftdruck 1021 hPa
Sichtweite 10 km oder mehr
Leicht bewölkt in der Höhe von 1400 ft
Geschlossene Wolkendecke in der Höhe von 3300 ft

METAR: EGVA 181001Z AUTO 23012KT 9999 FEW014 OVC033 18/14 A3014 RMK AO2 SLP208 $

Zeit: 11:14 (10:14 UTC)


TAF: fehlend

Wetterbeobachtungen und Prognosen von mehr als 4000 Flughäfen (METAR und TAF Bericht).

Die verfügbaren Stationen werden durch gelbe und rote Markierungen auf der Karte dargestellt.

Führen Sie die Maus auf sie, um den Namen der Station zu sehen.

Darauf klicken, um die Beobachtung von Wetterbeobachtungen und Prognosen zu sehen.

Um die Karte zu ändern : klicken Sie auf den grünen Tasten mit einem schwarzen Kreuz Zum Vergrößern, auf den grünen Button mit einem Gedankenstrich zu verkleinern, oder auf die grünen Pfeile für benachbarte Karten.


METAR-TAF: